createdAt,value
2023-02-02T00:01:36.583Z,3.33
2023-02-02T00:04:40.780Z,3.26
2023-02-02T00:07:43.980Z,3.36
2023-02-02T00:10:48.868Z,3.22
2023-02-02T00:13:52.118Z,3.10
2023-02-02T00:16:57.747Z,3.23
2023-02-02T00:20:01.052Z,3.28
2023-02-02T00:23:04.789Z,3.26
2023-02-02T00:26:08.443Z,3.37
2023-02-02T00:29:18.325Z,3.25
2023-02-02T00:32:21.666Z,3.21
2023-02-02T00:35:26.257Z,3.26
2023-02-02T00:38:29.749Z,3.18
2023-02-02T00:41:35.108Z,2.98
2023-02-02T00:44:38.425Z,3.07
2023-02-02T00:47:42.111Z,2.96
2023-02-02T00:50:47.200Z,3.22
2023-02-02T00:53:50.514Z,2.99
2023-02-02T00:56:54.900Z,3.20
2023-02-02T01:00:00.561Z,3.37
2023-02-02T01:03:04.805Z,3.26
2023-02-02T01:06:09.182Z,3.38
2023-02-02T01:09:12.837Z,3.38
2023-02-02T01:12:17.156Z,3.31
2023-02-02T01:15:23.144Z,3.31
2023-02-02T01:18:30.544Z,3.22
2023-02-02T01:21:35.185Z,3.18
2023-02-02T01:24:38.564Z,3.18
2023-02-02T01:27:43.777Z,3.17
2023-02-02T01:30:47.469Z,3.06
2023-02-02T01:33:51.250Z,3.10
2023-02-02T01:36:55.861Z,3.42
2023-02-02T01:40:01.231Z,3.31
2023-02-02T01:43:05.504Z,2.92
2023-02-02T01:46:30.757Z,3.02
2023-02-02T01:49:34.076Z,3.13
2023-02-02T01:52:38.171Z,3.18
2023-02-02T01:55:45.961Z,3.25
2023-02-02T01:58:49.251Z,3.14
2023-02-02T02:01:53.377Z,3.08
2023-02-02T02:04:57.108Z,3.42
2023-02-02T02:08:10.051Z,3.06
2023-02-02T02:11:14.994Z,3.26
2023-02-02T02:14:18.471Z,3.47
2023-02-02T02:18:14.781Z,3.71
2023-02-02T02:21:55.158Z,3.58
2023-02-02T02:25:23.983Z,3.62
2023-02-02T02:29:20.818Z,3.48
2023-02-02T02:32:44.782Z,3.20
2023-02-02T02:36:23.929Z,3.49
2023-02-02T02:39:38.097Z,3.60
2023-02-02T02:42:46.226Z,3.26
2023-02-02T02:45:50.236Z,3.45
2023-02-02T02:48:54.007Z,3.36
2023-02-02T02:51:57.868Z,3.36
2023-02-02T02:55:03.526Z,3.56
2023-02-02T02:58:20.335Z,3.73
2023-02-02T03:01:46.742Z,3.53
2023-02-02T03:05:00.165Z,3.41
2023-02-02T03:08:28.481Z,3.25
2023-02-02T03:11:32.583Z,3.47
2023-02-02T03:14:37.226Z,3.36
2023-02-02T03:17:43.192Z,3.28
2023-02-02T03:20:46.806Z,3.41
2023-02-02T03:23:50.268Z,3.36
2023-02-02T03:26:54.715Z,3.33
2023-02-02T03:29:58.108Z,3.74
2023-02-02T03:33:01.425Z,3.52
2023-02-02T03:36:04.892Z,3.57
2023-02-02T03:39:08.904Z,3.41
2023-02-02T03:42:13.912Z,3.44
2023-02-02T03:45:19.110Z,3.49
2023-02-02T03:48:22.601Z,3.23
2023-02-02T03:51:26.933Z,3.38
2023-02-02T03:54:30.389Z,3.20
2023-02-02T03:57:35.966Z,2.93
2023-02-02T04:00:41.418Z,2.99
2023-02-02T04:03:45.739Z,3.03
2023-02-02T04:06:49.040Z,2.86
2023-02-02T04:09:52.348Z,2.91
2023-02-02T04:12:56.242Z,2.92
2023-02-02T04:16:02.195Z,3.18
2023-02-02T04:19:08.276Z,2.85
2023-02-02T04:22:11.494Z,3.08
2023-02-02T04:25:15.252Z,3.12
2023-02-02T04:28:19.219Z,2.76
2023-02-02T04:31:23.382Z,3.19
2023-02-02T04:34:27.345Z,2.93
2023-02-02T04:37:33.521Z,2.95
2023-02-02T04:40:45.131Z,2.83
2023-02-02T04:43:48.799Z,2.97
2023-02-02T04:46:52.074Z,2.86
2023-02-02T04:49:55.394Z,2.95
2023-02-02T04:52:59.258Z,2.98
2023-02-02T04:56:14.175Z,3.07
2023-02-02T04:59:17.535Z,3.01
2023-02-02T05:02:20.746Z,2.99
2023-02-02T05:05:24.315Z,2.85
2023-02-02T05:08:28.624Z,2.86
2023-02-02T05:11:31.920Z,2.83
2023-02-02T05:14:35.509Z,3.04
2023-02-02T05:17:38.692Z,3.01
2023-02-02T05:20:42.680Z,3.14
2023-02-02T05:23:50.009Z,3.05
2023-02-02T05:26:54.041Z,3.01
2023-02-02T05:29:57.353Z,3.10
2023-02-02T05:33:01.696Z,3.00
2023-02-02T05:36:06.326Z,3.05
2023-02-02T05:39:12.256Z,3.15
2023-02-02T05:42:16.066Z,3.32
2023-02-02T05:45:19.800Z,3.26
2023-02-02T05:48:24.833Z,3.14
2023-02-02T05:51:36.688Z,3.04
2023-02-02T05:54:41.124Z,2.96
2023-02-02T05:57:44.618Z,2.83
2023-02-02T06:00:49.988Z,2.82
2023-02-02T06:03:56.869Z,2.80
2023-02-02T06:07:00.112Z,3.16
2023-02-02T06:10:04.689Z,2.92
2023-02-02T06:13:10.555Z,2.83
2023-02-02T06:16:14.102Z,2.97
2023-02-02T06:19:17.467Z,2.91
2023-02-02T06:22:20.741Z,2.86
2023-02-02T06:25:24.691Z,3.09
2023-02-02T06:28:30.455Z,3.07
2023-02-02T06:31:36.096Z,3.03
2023-02-02T06:34:40.134Z,2.86
2023-02-02T06:37:43.657Z,2.86
2023-02-02T06:40:47.687Z,2.48
2023-02-02T06:43:52.530Z,2.46
2023-02-02T06:46:59.825Z,2.73
2023-02-02T06:50:03.111Z,2.80
2023-02-02T06:53:08.560Z,2.87
2023-02-02T06:56:13.935Z,2.91
2023-02-02T06:59:17.140Z,2.87
2023-02-02T07:02:20.439Z,2.96
2023-02-02T07:05:28.053Z,2.77
2023-02-02T07:08:33.468Z,3.13
2023-02-02T07:11:38.150Z,3.18
2023-02-02T07:14:46.789Z,2.83
2023-02-02T07:17:51.322Z,3.01
2023-02-02T07:20:54.672Z,3.14
2023-02-02T07:23:58.758Z,3.03
2023-02-02T07:27:02.995Z,2.82
2023-02-02T07:30:08.387Z,2.81
2023-02-02T07:33:11.584Z,2.94
2023-02-02T07:36:18.169Z,2.86
2023-02-02T07:39:21.353Z,2.94
2023-02-02T07:42:24.655Z,3.01
2023-02-02T07:45:28.309Z,2.97
2023-02-02T07:48:33.193Z,2.97
2023-02-02T07:51:40.917Z,2.81
2023-02-02T07:54:46.366Z,2.88
2023-02-02T07:57:49.858Z,2.76
2023-02-02T08:00:53.773Z,2.99
2023-02-02T08:03:58.879Z,3.07
2023-02-02T08:07:02.385Z,2.84
2023-02-02T08:10:06.524Z,2.97
2023-02-02T08:13:13.393Z,3.00
2023-02-02T08:16:17.333Z,2.75
2023-02-02T08:19:20.912Z,2.62
2023-02-02T08:22:24.187Z,2.77
2023-02-02T08:25:27.958Z,3.02
2023-02-02T08:28:35.906Z,2.83
2023-02-02T08:31:40.916Z,2.94
2023-02-02T08:34:44.539Z,2.86
2023-02-02T08:37:54.572Z,2.95
2023-02-02T08:41:04.684Z,3.04
2023-02-02T08:44:14.204Z,2.91
2023-02-02T08:47:17.433Z,2.78
2023-02-02T08:50:22.562Z,2.64
2023-02-02T08:53:27.298Z,2.77
2023-02-02T08:56:30.517Z,2.78
2023-02-02T08:59:36.039Z,2.80
2023-02-02T09:02:40.235Z,2.64
2023-02-02T09:05:44.233Z,2.89
2023-02-02T09:08:48.657Z,2.87
2023-02-02T09:11:53.092Z,2.50
2023-02-02T09:14:57.101Z,2.63
2023-02-02T09:18:04.446Z,2.92
2023-02-02T09:21:11.197Z,3.04
2023-02-02T09:24:14.927Z,2.94
2023-02-02T09:27:18.786Z,2.73
2023-02-02T09:30:22.991Z,2.87
2023-02-02T09:33:26.200Z,2.90
2023-02-02T09:36:29.418Z,2.95
2023-02-02T09:39:33.303Z,2.54
2023-02-02T09:42:56.526Z,2.69
2023-02-02T09:46:20.617Z,2.82
2023-02-02T09:50:09.161Z,2.73
2023-02-02T09:53:15.352Z,2.93
2023-02-02T09:56:44.680Z,2.79
2023-02-02T09:59:51.577Z,2.75
2023-02-02T10:03:00.522Z,2.76
2023-02-02T10:06:32.059Z,2.73
2023-02-02T10:09:56.717Z,2.84
2023-02-02T10:13:11.600Z,2.92
2023-02-02T10:16:21.333Z,2.80
2023-02-02T10:19:25.809Z,2.93
2023-02-02T10:22:30.514Z,2.95
2023-02-02T10:25:35.968Z,3.23
2023-02-02T10:29:17.390Z,3.09
2023-02-02T10:32:33.518Z,2.95
2023-02-02T10:35:44.315Z,3.10
2023-02-02T10:39:19.494Z,3.12
2023-02-02T10:42:34.802Z,3.04
2023-02-02T10:45:39.126Z,2.94
2023-02-02T10:48:47.729Z,3.13
2023-02-02T10:52:06.439Z,3.15
2023-02-02T10:55:19.316Z,3.00
2023-02-02T10:58:30.791Z,3.10
2023-02-02T11:01:35.459Z,3.06
2023-02-02T11:04:39.331Z,3.22
2023-02-02T11:07:43.249Z,3.43
2023-02-02T11:10:50.185Z,3.56
2023-02-02T11:14:16.493Z,3.33
2023-02-02T11:17:29.853Z,3.25
2023-02-02T11:20:40.659Z,3.25
2023-02-02T11:23:55.817Z,3.24
2023-02-02T11:27:25.077Z,3.22
2023-02-02T11:30:38.207Z,3.10
2023-02-02T11:33:41.529Z,2.96
2023-02-02T11:37:03.547Z,3.08
2023-02-02T11:40:25.731Z,3.11
2023-02-02T11:43:33.677Z,3.03
2023-02-02T11:46:39.250Z,2.98
2023-02-02T11:49:44.379Z,3.02
2023-02-02T11:52:47.873Z,2.97
2023-02-02T11:55:51.421Z,3.38
2023-02-02T11:59:01.323Z,3.26
2023-02-02T12:02:13.803Z,3.52
2023-02-02T12:05:33.644Z,3.32
2023-02-02T12:08:37.059Z,3.26
2023-02-02T12:11:59.898Z,3.48
2023-02-02T12:15:17.135Z,3.43
2023-02-02T12:18:55.347Z,3.09
2023-02-02T12:22:11.384Z,3.16
2023-02-02T12:25:39.439Z,3.26
2023-02-02T12:29:09.571Z,3.30
2023-02-02T12:32:42.402Z,3.59
2023-02-02T12:36:05.070Z,3.59
2023-02-02T12:39:33.542Z,3.67
2023-02-02T12:43:11.843Z,3.55
2023-02-02T12:46:34.781Z,3.55
2023-02-02T12:49:53.947Z,3.68
2023-02-02T12:53:23.919Z,3.30
2023-02-02T12:57:01.616Z,3.40
2023-02-02T13:00:29.171Z,3.33
2023-02-02T13:03:45.565Z,3.43
2023-02-02T13:07:09.747Z,3.51
2023-02-02T13:10:34.788Z,3.45
2023-02-02T13:13:39.650Z,3.35
2023-02-02T13:16:53.536Z,3.74
2023-02-02T13:20:00.600Z,3.68
2023-02-02T13:23:30.211Z,3.66
2023-02-02T13:26:39.670Z,3.61
2023-02-02T13:29:53.355Z,3.30
2023-02-02T13:33:04.836Z,3.58
2023-02-02T13:36:19.085Z,3.75
2023-02-02T13:39:23.315Z,3.67
2023-02-02T13:43:00.803Z,3.77
2023-02-02T13:46:29.302Z,3.73
2023-02-02T13:49:40.857Z,3.46
2023-02-02T13:53:09.032Z,3.32
2023-02-02T13:56:36.935Z,3.52
2023-02-02T14:00:01.743Z,3.42
2023-02-02T14:03:23.764Z,3.59
2023-02-02T14:06:28.727Z,3.57
2023-02-02T14:09:37.600Z,3.74
2023-02-02T14:12:41.867Z,3.49
2023-02-02T14:15:46.028Z,3.59
2023-02-02T14:18:53.802Z,3.44
2023-02-02T14:22:00.940Z,3.27
2023-02-02T14:25:08.236Z,3.27
2023-02-02T14:28:46.204Z,3.14
2023-02-02T14:32:01.193Z,3.06
2023-02-02T14:35:13.160Z,3.35
2023-02-02T14:38:48.459Z,3.26
2023-02-02T14:42:00.468Z,3.20
2023-02-02T14:45:12.610Z,3.09
2023-02-02T14:48:23.503Z,3.09
2023-02-02T14:51:29.091Z,3.12
2023-02-02T14:54:41.607Z,3.07
2023-02-02T14:57:44.827Z,3.17
2023-02-02T15:01:06.770Z,3.04
2023-02-02T15:04:22.939Z,3.18
2023-02-02T15:07:27.195Z,2.96
2023-02-02T15:10:51.076Z,3.02
2023-02-02T15:14:00.606Z,2.91
2023-02-02T15:17:27.779Z,2.85
2023-02-02T15:20:33.740Z,3.00
2023-02-02T15:23:43.375Z,3.09
2023-02-02T15:26:47.182Z,3.27
2023-02-02T15:29:55.070Z,3.09
2023-02-02T15:32:57.870Z,3.15
2023-02-02T15:36:05.786Z,3.08
2023-02-02T15:39:12.281Z,3.13
2023-02-02T15:42:53.566Z,3.21
2023-02-02T15:46:06.248Z,3.13
2023-02-02T15:49:35.889Z,3.17
2023-02-02T15:52:46.970Z,3.13
2023-02-02T15:55:53.725Z,3.29
2023-02-02T15:59:00.868Z,3.30
2023-02-02T16:02:04.009Z,3.22
2023-02-02T16:05:32.717Z,2.72
2023-02-02T16:08:38.186Z,3.13
2023-02-02T16:11:48.153Z,3.27
2023-02-02T16:14:54.715Z,3.50
2023-02-02T16:18:07.628Z,3.59
2023-02-02T16:21:18.504Z,3.65
2023-02-02T16:24:28.553Z,3.50
2023-02-02T16:27:33.615Z,3.81
2023-02-02T16:30:40.397Z,3.70
2023-02-02T16:33:45.788Z,3.43
2023-02-02T16:37:24.820Z,3.52
2023-02-02T16:40:32.601Z,3.72
2023-02-02T16:43:37.016Z,3.87
2023-02-02T16:46:46.787Z,4.02
2023-02-02T16:49:51.503Z,4.13
2023-02-02T16:53:04.071Z,4.26
2023-02-02T16:56:10.100Z,4.25
2023-02-02T16:59:24.421Z,4.47
2023-02-02T17:02:31.664Z,4.66
2023-02-02T17:05:53.339Z,4.66
2023-02-02T17:08:56.522Z,4.65
2023-02-02T17:12:32.103Z,4.76
2023-02-02T17:15:37.741Z,5.15
2023-02-02T17:18:40.997Z,4.85
2023-02-02T17:21:44.802Z,4.82
2023-02-02T17:24:49.687Z,4.69
2023-02-02T17:27:53.044Z,4.86
2023-02-02T17:30:59.432Z,4.73
2023-02-02T17:34:03.488Z,5.05
2023-02-02T17:37:07.393Z,5.07
2023-02-02T17:40:16.240Z,4.75
2023-02-02T17:43:27.866Z,4.76
2023-02-02T17:46:32.367Z,5.10
2023-02-02T17:49:35.508Z,5.06
2023-02-02T17:52:39.912Z,5.16
2023-02-02T17:55:45.623Z,4.95
2023-02-02T17:58:48.806Z,4.90
2023-02-02T18:01:53.424Z,4.78
2023-02-02T18:04:56.650Z,4.98
2023-02-02T18:07:59.943Z,4.88
2023-02-02T18:11:05.544Z,5.34
2023-02-02T18:14:09.704Z,5.20
2023-02-02T18:17:16.291Z,5.11
2023-02-02T18:20:21.021Z,5.11
2023-02-02T18:23:24.166Z,5.02
2023-02-02T18:26:27.364Z,5.08
2023-02-02T18:29:30.979Z,5.27
2023-02-02T18:32:41.849Z,5.38
2023-02-02T18:35:46.784Z,5.18
2023-02-02T18:38:51.240Z,5.22
2023-02-02T18:41:58.089Z,5.22
2023-02-02T18:45:01.928Z,5.23
2023-02-02T18:48:05.682Z,5.13
2023-02-02T18:51:11.948Z,4.98
2023-02-02T18:54:15.304Z,4.91
2023-02-02T18:57:19.629Z,5.06
2023-02-02T19:00:24.075Z,5.06
2023-02-02T19:03:27.761Z,4.96
2023-02-02T19:06:32.241Z,4.90
2023-02-02T19:09:37.420Z,5.09
2023-02-02T19:12:40.754Z,4.95
2023-02-02T19:15:44.599Z,4.83
2023-02-02T19:18:50.095Z,4.76
2023-02-02T19:22:16.655Z,4.89
2023-02-02T19:25:21.032Z,5.04
2023-02-02T19:28:31.491Z,4.84
2023-02-02T19:31:35.070Z,4.87
2023-02-02T19:34:38.241Z,4.99
2023-02-02T19:37:41.782Z,5.00
2023-02-02T19:40:45.773Z,5.09
2023-02-02T19:43:50.743Z,4.95
2023-02-02T19:46:54.271Z,4.78
2023-02-02T19:49:57.554Z,4.97
2023-02-02T19:53:01.342Z,4.79
2023-02-02T19:56:24.236Z,4.76
2023-02-02T19:59:33.855Z,4.91
2023-02-02T20:02:44.638Z,4.87
2023-02-02T20:05:50.112Z,4.82
2023-02-02T20:08:54.332Z,4.88
2023-02-02T20:12:00.532Z,4.46
2023-02-02T20:15:36.774Z,4.40
2023-02-02T20:18:43.453Z,4.54
2023-02-02T20:21:49.117Z,4.26
2023-02-02T20:24:53.059Z,4.42
2023-02-02T20:27:56.264Z,4.55
2023-02-02T20:31:00.473Z,4.67
2023-02-02T20:34:29.854Z,4.64
2023-02-02T20:37:36.769Z,4.63
2023-02-02T20:40:39.941Z,4.74
2023-02-02T20:43:43.106Z,4.43
2023-02-02T20:46:47.491Z,4.68
2023-02-02T20:49:50.862Z,4.59
2023-02-02T20:52:53.999Z,4.32
2023-02-02T20:55:57.379Z,4.73
2023-02-02T20:59:00.680Z,4.73
2023-02-02T21:02:04.570Z,4.60
2023-02-02T21:05:10.833Z,4.36
2023-02-02T21:08:13.937Z,4.59
2023-02-02T21:11:17.497Z,4.73
2023-02-02T21:14:20.650Z,4.76
2023-02-02T21:17:23.930Z,4.91
2023-02-02T21:20:27.565Z,4.83
2023-02-02T21:23:31.546Z,4.82
2023-02-02T21:26:34.673Z,4.81
2023-02-02T21:29:38.153Z,4.74
2023-02-02T21:32:41.758Z,4.84
2023-02-02T21:35:45.851Z,4.68
2023-02-02T21:38:49.582Z,4.75
2023-02-02T21:42:10.450Z,4.63
2023-02-02T21:45:32.249Z,4.65
2023-02-02T21:48:38.233Z,4.96
2023-02-02T21:51:43.199Z,4.91
2023-02-02T21:54:47.608Z,4.90
2023-02-02T21:57:52.294Z,4.80
2023-02-02T22:01:02.086Z,4.78
2023-02-02T22:04:12.543Z,4.68
2023-02-02T22:07:18.103Z,5.01
2023-02-02T22:10:36.085Z,4.95
2023-02-02T22:13:39.300Z,5.00
2023-02-02T22:16:47.161Z,4.86
2023-02-02T22:20:12.008Z,5.04
2023-02-02T22:23:21.875Z,4.95
2023-02-02T22:26:35.298Z,4.96
2023-02-02T22:29:39.177Z,4.83
2023-02-02T22:32:43.015Z,4.87
2023-02-02T22:35:47.282Z,4.94
2023-02-02T22:38:50.729Z,5.06
2023-02-02T22:41:54.035Z,4.92
2023-02-02T22:44:57.437Z,4.87
2023-02-02T22:48:04.102Z,4.84
2023-02-02T22:51:07.362Z,4.99
2023-02-02T22:54:10.995Z,4.90
2023-02-02T22:57:14.087Z,4.99
2023-02-02T23:00:18.724Z,5.04
2023-02-02T23:03:24.902Z,5.00
2023-02-02T23:06:28.052Z,5.18
2023-02-02T23:09:31.793Z,5.01
2023-02-02T23:12:35.319Z,5.30
2023-02-02T23:15:39.119Z,5.25
2023-02-02T23:18:46.468Z,5.15
2023-02-02T23:21:52.104Z,5.17
2023-02-02T23:24:56.093Z,5.34
2023-02-02T23:27:59.539Z,5.26
2023-02-02T23:31:02.938Z,5.17
2023-02-02T23:34:06.548Z,5.08
2023-02-02T23:37:13.244Z,5.00
2023-02-02T23:40:23.280Z,5.07
2023-02-02T23:43:26.893Z,4.96
2023-02-02T23:46:30.290Z,5.18
2023-02-02T23:49:35.409Z,5.18
2023-02-02T23:52:39.688Z,5.22
2023-02-02T23:55:45.107Z,5.38
2023-02-02T23:58:49.015Z,5.38
